Time;durP1;ratioP1;P1;durP2;ratioP2;P2;SDS_P1;SDS_P2;PMS_P1;PMS_P2;Temp;Humidity;BMP_temperature;BMP_pressure;BME280_temperature;BME280_humidity;BME280_pressure;Samples;Min_cycle;Max_cycle;Signal;HPM_P1;HPM_P2
2022/11/27 00:00:58;;;;;;;0.10;0.00;;;;;;;9.49;100.00;100884.50;5015640;28;20214;-59
2022/11/27 00:03:24;;;;;;;0.10;0.10;;;;;;;9.49;100.00;100884.50;5021676;28;20442;-59
2022/11/27 00:05:59;;;;;;;2.22;0.90;;;;;;;9.49;100.00;100873.91;5015379;28;20072;-60
2022/11/27 00:08:24;;;;;;;3.10;0.10;;;;;;;9.43;100.00;100876.44;5021637;28;20030;-60
2022/11/27 00:10:50;;;;;;;0.00;0.00;;;;;;;9.41;100.00;100867.84;5020625;28;20056;-60
2022/11/27 00:13:15;;;;;;;0.98;0.20;;;;;;;9.38;100.00;100871.66;5020056;28;20029;-60
2022/11/27 00:15:41;;;;;;;3.70;0.10;;;;;;;9.37;100.00;100868.19;5022994;28;20485;-58
2022/11/27 00:18:07;;;;;;;0.00;0.00;;;;;;;9.45;100.00;100867.34;5024821;28;20033;-61
2022/11/27 00:20:32;;;;;;;0.15;0.15;;;;;;;9.44;100.00;100872.78;5022168;28;20346;-60
2022/11/27 00:22:57;;;;;;;0.88;0.00;;;;;;;9.42;100.00;100867.66;5021412;28;20116;-61
2022/11/27 00:25:23;;;;;;;0.20;0.20;;;;;;;9.41;100.00;100868.66;5020166;28;20021;-61
2022/11/27 00:27:48;;;;;;;0.15;0.00;;;;;;;9.41;100.00;100860.72;5023926;28;20126;-60
2022/11/27 00:30:14;;;;;;;3.38;0.00;;;;;;;9.41;100.00;100859.91;5019069;28;20204;-58
2022/11/27 00:32:40;;;;;;;0.80;0.40;;;;;;;9.41;100.00;100849.31;5023964;28;20096;-59
2022/11/27 00:35:06;;;;;;;1.55;0.43;;;;;;;9.41;100.00;100850.13;5023068;28;20030;-59
2022/11/27 00:37:31;;;;;;;1.65;0.30;;;;;;;9.41;100.00;100844.84;5024036;28;20063;-59
2022/11/27 00:39:56;;;;;;;1.27;0.03;;;;;;;9.40;100.00;100848.50;5024669;28;20116;-61
2022/11/27 00:42:22;;;;;;;0.17;0.10;;;;;;;9.41;100.00;100844.03;5021654;28;20021;-61
2022/11/27 00:44:47;;;;;;;1.42;0.10;;;;;;;9.40;100.00;100845.84;5022144;28;20150;-54
2022/11/27 00:47:12;;;;;;;1.30;0.28;;;;;;;9.39;100.00;100838.91;5021938;28;20060;-60
2022/11/27 00:49:38;;;;;;;0.20;0.00;;;;;;;9.38;100.00;100835.44;5022567;28;20057;-62
2022/11/27 00:52:03;;;;;;;0.40;0.22;;;;;;;9.41;100.00;100844.03;5023395;28;20036;-59
2022/11/27 00:54:28;;;;;;;0.13;0.10;;;;;;;9.42;100.00;100837.72;5022357;28;20124;-60
2022/11/27 00:56:54;;;;;;;1.92;0.55;;;;;;;9.40;100.00;100832.63;5020283;28;20667;-61
2022/11/27 00:59:19;;;;;;;3.63;0.00;;;;;;;9.38;100.00;100830.13;5023901;28;20662;-61
2022/11/27 01:01:45;;;;;;;4.75;0.52;;;;;;;9.39;100.00;100839.72;5019123;28;20053;-59
2022/11/27 01:04:13;;;;;;;0.85;0.08;;;;;;;9.45;100.00;100845.31;5026426;28;20032;-62
2022/11/27 01:06:39;;;;;;;2.45;0.80;;;;;;;9.44;100.00;100843.66;5017295;28;20034;-60
2022/11/27 01:09:04;;;;;;;1.95;0.10;;;;;;;9.43;100.00;100836.75;5023524;28;20041;-63
2022/11/27 01:11:32;;;;;;;0.03;0.00;;;;;;;9.50;100.00;100845.59;5023745;28;20581;-55
2022/11/27 01:14:01;;;;;;;0.17;0.05;;;;;;;9.43;100.00;100842.03;5020733;28;20028;-62
2022/11/27 01:16:28;;;;;;;4.03;0.35;;;;;;;9.49;100.00;100839.50;5025644;28;20386;-61
2022/11/27 01:18:57;;;;;;;0.00;0.00;;;;;;;9.49;100.00;100842.16;5027706;28;20013;-61
2022/11/27 01:21:24;;;;;;;0.10;0.00;;;;;;;9.48;100.00;100832.56;5026541;28;20430;-61
2022/11/27 01:23:49;;;;;;;0.35;0.20;;;;;;;9.45;100.00;100826.78;5022773;28;20029;-63
2022/11/27 01:26:16;;;;;;;0.73;0.00;;;;;;;9.50;100.00;100827.06;5024215;28;20092;-63
2022/11/27 01:28:42;;;;;;;1.33;0.50;;;;;;;9.49;100.00;100825.44;5020662;28;20029;-62
2022/11/27 01:31:20;;;;;;;0.80;0.28;;;;;;;9.51;100.00;100815.50;5018929;28;20022;-62
2022/11/27 01:33:46;;;;;;;0.10;0.00;;;;;;;9.52;100.00;100817.97;5026803;28;20125;-62
2022/11/27 01:36:14;;;;;;;0.75;0.00;;;;;;;9.54;100.00;100821.25;5021506;28;20030;-60
2022/11/27 01:38:39;;;;;;;2.67;0.47;;;;;;;9.55;100.00;100812.34;5029680;28;20025;-63
2022/11/27 01:41:26;;;;;;;0.13;0.00;;;;;;;9.62;100.00;100809.78;5028014;28;20025;-62
2022/11/27 01:44:02;;;;;;;0.98;0.00;;;;;;;9.58;100.00;100806.69;5014229;28;20128;-61
2022/11/27 01:46:38;;;;;;;0.75;0.20;;;;;;;9.60;100.00;100806.50;5026287;28;20067;-62
2022/11/27 01:49:10;;;;;;;2.13;0.00;;;;;;;9.65;100.00;100814.72;5028575;28;20044;-61
2022/11/27 01:51:40;;;;;;;;;;;;;;;9.68;100.00;100817.06;5025827;28;20482;-62
2022/11/27 01:54:08;;;;;;;0.13;0.00;;;;;;;9.67;100.00;100818.03;5029626;28;20008;-63
2022/11/27 01:56:34;;;;;;;0.20;0.00;;;;;;;9.64;100.00;100815.75;5027941;28;20048;-63
2022/11/27 01:59:01;;;;;;;1.15;0.00;;;;;;;9.68;100.00;100821.50;5020096;28;20502;-61
2022/11/27 02:01:27;;;;;;;0.13;0.00;;;;;;;9.68;100.00;100817.06;5010800;28;20041;-62
2022/11/27 02:03:56;;;;;;;0.00;0.00;;;;;;;9.70;100.00;100822.97;5029919;28;20028;-60
2022/11/27 02:06:24;;;;;;;0.20;0.00;;;;;;;9.70;100.00;100816.84;5013741;28;20030;-62
2022/11/27 02:08:49;;;;;;;0.32;0.00;;;;;;;9.71;100.00;100815.88;5028176;28;20497;-62
2022/11/27 02:11:33;;;;;;;1.17;0.00;;;;;;;9.73;100.00;100806.75;5029441;28;20162;-62
2022/11/27 02:14:25;;;;;;;0.35;0.13;;;;;;;9.77;100.00;100812.50;5022299;28;20018;-61
2022/11/27 02:17:01;;;;;;;;;;;;;;;9.83;100.00;100811.78;5026202;28;20047;-64
2022/11/27 02:20:26;;;;;;;1.65;0.00;;;;;;;9.89;100.00;100820.88;5023904;28;20290;-62
2022/11/27 02:23:10;;;;;;;0.88;0.03;;;;;;;9.85;100.00;100825.69;5012773;28;20029;-62
2022/11/27 02:25:50;;;;;;;0.20;0.05;;;;;;;9.86;100.00;100815.91;5026507;28;20219;-61
2022/11/27 02:28:49;;;;;;;3.20;1.08;;;;;;;9.90;100.00;100818.03;5022046;28;20041;-63
2022/11/27 02:31:21;;;;;;;1.00;0.00;;;;;;;9.93;100.00;100825.59;5022462;28;20372;-63
2022/11/27 02:33:51;;;;;;;0.00;0.00;;;;;;;9.96;100.00;100822.59;5018981;28;20026;-62
2022/11/27 02:36:23;;;;;;;0.00;0.00;;;;;;;9.97;100.00;100800.41;5025674;28;20033;-61
2022/11/27 02:39:07;;;;;;;0.65;0.15;;;;;;;9.98;100.00;100801.25;5030052;28;20022;-63
2022/11/27 02:41:40;;;;;;;1.23;0.45;;;;;;;9.96;100.00;100805.88;5023906;28;20533;-63
2022/11/27 02:44:08;;;;;;;0.45;0.00;;;;;;;9.99;100.00;100805.53;5028464;28;20029;-62
2022/11/27 02:46:33;;;;;;;0.13;0.00;;;;;;;10.01;100.00;100816.78;5018713;28;20847;-63
2022/11/27 02:49:07;;;;;;;0.30;0.03;;;;;;;10.01;100.00;100811.47;5028958;28;20029;-62
2022/11/27 02:51:41;;;;;;;0.52;0.00;;;;;;;10.03;100.00;100812.94;5025872;28;20501;-63
2022/11/27 02:54:13;;;;;;;2.25;0.00;;;;;;;10.05;100.00;100826.03;4996611;28;20034;-60
2022/11/27 02:56:41;;;;;;;2.83;0.20;;;;;;;10.06;100.00;100825.00;5028627;28;20021;-62
2022/11/27 02:59:10;;;;;;;1.45;0.00;;;;;;;10.04;100.00;100819.06;5027320;28;20022;-62
2022/11/27 03:01:42;;;;;;;0.32;0.10;;;;;;;10.11;100.00;100827.13;5027114;28;20087;-59
2022/11/27 03:04:12;;;;;;;0.00;0.00;;;;;;;10.12;100.00;100819.00;5027689;28;20033;-61
2022/11/27 03:06:44;;;;;;;0.00;0.00;;;;;;;10.14;100.00;100813.50;5022762;28;20050;-62
2022/11/27 03:09:14;;;;;;;0.00;0.00;;;;;;;10.17;100.00;100823.75;5018838;28;20057;-63
2022/11/27 03:11:40;;;;;;;0.20;0.07;;;;;;;10.19;100.00;100829.69;5023380;28;20030;-62
2022/11/27 03:14:08;;;;;;;0.00;0.00;;;;;;;10.17;100.00;100823.75;5025419;28;20648;-62
2022/11/27 03:16:55;;;;;;;1.52;0.52;;;;;;;10.18;100.00;100822.75;5021983;28;20041;-61
2022/11/27 03:19:29;;;;;;;0.75;0.00;;;;;;;10.22;100.00;100808.13;5033925;28;20033;-63
2022/11/27 03:21:57;;;;;;;0.88;0.00;;;;;;;10.16;100.00;100812.31;5024095;28;20025;-61
2022/11/27 03:24:23;;;;;;;1.05;0.00;;;;;;;10.23;100.00;100809.78;5020946;28;20116;-62
2022/11/27 03:26:49;;;;;;;2.25;0.00;;;;;;;10.22;100.00;100798.38;5033724;28;20469;-61
2022/11/27 03:29:27;;;;;;;1.02;0.30;;;;;;;10.24;100.00;100788.41;5027515;28;20033;-61
2022/11/27 03:31:55;;;;;;;0.82;0.08;;;;;;;10.27;100.00;100787.22;5028802;28;20681;-62
2022/11/27 03:34:20;;;;;;;0.70;0.08;;;;;;;10.29;100.00;100793.19;5029407;28;20057;-60
2022/11/27 03:36:46;;;;;;;2.80;0.20;;;;;;;10.32;100.00;100798.13;5026042;28;20562;-62
2022/11/27 03:39:11;;;;;;;0.25;0.15;;;;;;;10.33;100.00;100804.28;5029676;28;20044;-63
2022/11/27 03:41:40;;;;;;;1.02;0.00;;;;;;;10.37;100.00;100798.41;5027358;28;20039;-62
2022/11/27 03:44:23;;;;;;;1.17;0.10;;;;;;;10.41;100.00;100788.28;5028772;28;20041;-62
2022/11/27 03:47:08;;;;;;;1.20;0.20;;;;;;;10.41;100.00;100794.41;5024210;28;20029;-62
2022/11/27 03:50:08;;;;;;;0.75;0.10;;;;;;;10.43;100.00;100786.28;5019116;28;20042;-63
2022/11/27 03:53:02;;;;;;;2.83;0.00;;;;;;;10.46;100.00;100785.91;5029373;28;20463;-61
2022/11/27 03:55:27;;;;;;;0.65;0.00;;;;;;;10.39;100.00;100790.28;5024874;28;20542;-61
2022/11/27 03:58:08;;;;;;;0.15;0.00;;;;;;;10.44;100.00;100794.03;5023356;28;20100;-61
2022/11/27 04:00:41;;;;;;;1.75;0.00;;;;;;;10.50;100.00;100792.47;5024091;28;20390;-62
2022/11/27 04:03:12;;;;;;;1.48;0.00;;;;;;;10.53;100.00;100788.63;5027027;28;20398;-62
2022/11/27 04:05:37;;;;;;;0.55;0.00;;;;;;;10.50;100.00;100792.47;5022581;28;20427;-62
2022/11/27 04:08:03;;;;;;;0.80;0.00;;;;;;;10.51;100.00;100794.13;5026356;28;20125;-62
2022/11/27 04:10:28;;;;;;;0.20;0.00;;;;;;;10.52;100.00;100800.25;5021552;28;20065;-61
2022/11/27 04:12:54;;;;;;;0.10;0.00;;;;;;;10.53;100.00;100805.34;5023357;28;20032;-62
2022/11/27 04:15:19;;;;;;;1.00;0.08;;;;;;;10.56;100.00;100802.34;5025187;28;20033;-60
2022/11/27 04:17:45;;;;;;;0.60;0.00;;;;;;;10.60;100.00;100798.31;5027101;28;20041;-62
2022/11/27 04:20:14;;;;;;;2.05;0.15;;;;;;;10.65;100.00;100798.59;5029590;28;20025;-62
2022/11/27 04:22:39;;;;;;;0.65;0.08;;;;;;;10.66;100.00;100802.91;5018494;28;20380;-63
2022/11/27 04:25:06;;;;;;;4.68;0.20;;;;;;;10.65;100.00;100805.72;5025164;28;20048;-62
2022/11/27 04:27:31;;;;;;;1.83;0.50;;;;;;;10.67;100.00;100815.16;5027610;28;20069;-62
2022/11/27 04:29:56;;;;;;;0.55;0.10;;;;;;;10.68;100.00;100811.47;5023231;28;20457;-62
2022/11/27 04:32:22;;;;;;;5.25;0.00;;;;;;;10.71;100.00;100826.19;5026436;28;20033;-62
2022/11/27 04:34:47;;;;;;;0.43;0.00;;;;;;;10.73;100.00;100823.38;5020838;28;20147;-62
2022/11/27 04:37:13;;;;;;;0.47;0.05;;;;;;;10.74;100.00;100814.41;5037003;28;20167;-61
2022/11/27 04:39:38;;;;;;;0.20;0.10;;;;;;;10.75;100.00;100821.38;5030263;28;20053;-61
2022/11/27 04:42:03;;;;;;;3.00;0.00;;;;;;;10.78;100.00;100828.97;5023856;28;20112;-62
2022/11/27 04:44:29;;;;;;;0.80;0.00;;;;;;;10.77;100.00;100822.03;5025868;28;20069;-62
2022/11/27 04:46:54;;;;;;;0.38;0.00;;;;;;;10.79;100.00;100796.09;5025781;28;20068;-62
2022/11/27 04:49:19;;;;;;;3.40;0.35;;;;;;;10.78;100.00;100795.28;5025480;28;20550;-61
2022/11/27 04:51:45;;;;;;;0.40;0.00;;;;;;;10.77;100.00;100806.91;5024572;28;20382;-61
2022/11/27 04:54:11;;;;;;;0.73;0.00;;;;;;;10.81;100.00;100796.75;5021465;28;20022;-62
2022/11/27 04:56:36;;;;;;;0.20;0.10;;;;;;;10.85;100.00;100795.38;5027535;28;20068;-62
2022/11/27 04:59:02;;;;;;;0.57;0.00;;;;;;;10.85;100.00;100800.69;5024858;28;20022;-62
2022/11/27 05:01:28;;;;;;;0.00;0.00;;;;;;;10.88;100.00;100805.63;5023383;28;20080;-61
2022/11/27 05:03:53;;;;;;;0.35;0.00;;;;;;;10.85;100.00;100808.66;5024106;28;20057;-61
2022/11/27 05:06:21;;;;;;;0.32;0.00;;;;;;;10.89;100.00;100815.22;5020038;28;20076;-62
2022/11/27 05:08:47;;;;;;;0.75;0.00;;;;;;;10.83;100.00;100811.47;5028320;28;20508;-60
2022/11/27 05:11:14;;;;;;;0.20;0.00;;;;;;;10.87;100.00;100809.28;5027616;28;20029;-63
2022/11/27 05:13:40;;;;;;;1.17;0.03;;;;;;;10.87;100.00;100809.28;5028005;28;20038;-61
2022/11/27 05:16:05;;;;;;;0.95;0.00;;;;;;;10.87;100.00;100804.00;5028340;28;20026;-61
2022/11/27 05:18:32;;;;;;;0.00;0.00;;;;;;;10.87;100.00;100793.38;5020897;28;20036;-61
2022/11/27 05:20:59;;;;;;;3.88;0.50;;;;;;;10.88;100.00;100790.53;5030747;28;20033;-61
2022/11/27 05:23:25;;;;;;;1.65;0.10;;;;;;;10.87;100.00;100778.28;5028336;28;20128;-62
2022/11/27 05:25:50;;;;;;;0.63;0.00;;;;;;;10.90;100.00;100782.38;5027616;28;20491;-62
2022/11/27 05:28:16;;;;;;;1.67;0.10;;;;;;;10.90;100.00;100785.03;5019954;28;20029;-63
2022/11/27 05:30:41;;;;;;;0.13;0.00;;;;;;;10.91;100.00;100779.53;5019188;28;20142;-61
2022/11/27 05:33:07;;;;;;;2.13;0.00;;;;;;;10.91;100.00;100795.44;5032936;28;20041;-62
2022/11/27 05:35:32;;;;;;;0.10;0.05;;;;;;;10.92;100.00;100793.66;5025298;28;20056;-62
2022/11/27 05:37:58;;;;;;;1.35;0.00;;;;;;;10.92;100.00;100791.00;5021721;28;20030;-62
2022/11/27 05:40:23;;;;;;;1.65;0.80;;;;;;;10.97;100.00;100796.56;5021275;28;20022;-62
2022/11/27 05:42:49;;;;;;;0.00;0.00;;;;;;;10.97;100.00;100814.28;5024541;28;20029;-61
2022/11/27 05:45:14;;;;;;;0.10;0.00;;;;;;;10.97;100.00;100815.13;5026138;28;20029;-62
2022/11/27 05:47:39;;;;;;;1.17;0.00;;;;;;;10.94;100.00;100820.78;5020199;28;20485;-63
2022/11/27 05:50:05;;;;;;;1.80;0.10;;;;;;;11.00;100.00;100811.28;5023205;28;20075;-63
2022/11/27 05:52:31;;;;;;;0.65;0.00;;;;;;;10.97;100.00;100817.78;5028519;28;20036;-63
2022/11/27 05:54:56;;;;;;;1.55;0.00;;;;;;;10.97;100.00;100816.94;5025972;28;20125;-65
2022/11/27 05:57:21;;;;;;;2.03;0.28;;;;;;;10.97;100.00;100825.75;5026113;28;20656;-63
2022/11/27 05:59:47;;;;;;;0.08;0.05;;;;;;;10.95;100.00;100838.38;5024775;28;20056;-63
2022/11/27 06:02:12;;;;;;;1.23;0.25;;;;;;;10.97;100.00;100844.31;5026911;28;20037;-63
2022/11/27 06:04:37;;;;;;;0.10;0.00;;;;;;;10.99;100.00;100836.16;5021813;28;20041;-62
2022/11/27 06:07:03;;;;;;;0.00;0.00;;;;;;;10.96;100.00;100840.00;5025960;28;20079;-63
2022/11/27 06:09:28;;;;;;;0.10;0.00;;;;;;;10.96;100.00;100849.81;5022723;28;20392;-63
2022/11/27 06:11:53;;;;;;;1.13;0.00;;;;;;;10.96;100.00;100849.81;5025273;28;20025;-63
2022/11/27 06:14:19;;;;;;;5.63;0.52;;;;;;;10.97;100.00;100849.63;5025436;28;20468;-63
2022/11/27 06:16:44;;;;;;;1.55;0.00;;;;;;;11.01;100.00;100853.53;5019541;28;20037;-63
2022/11/27 06:19:09;;;;;;;0.80;0.10;;;;;;;10.99;100.00;100852.91;5024229;28;20101;-63
2022/11/27 06:21:35;;;;;;;0.30;0.00;;;;;;;10.95;100.00;100856.94;5019102;28;20021;-64
2022/11/27 06:24:02;;;;;;;0.00;0.00;;;;;;;10.97;100.00;100852.28;5013266;28;20402;-63
2022/11/27 06:26:30;;;;;;;0.45;0.00;;;;;;;11.00;100.00;100845.78;5030164;28;20029;-63
2022/11/27 06:28:57;;;;;;;0.93;0.32;;;;;;;11.00;100.00;100837.81;5032657;28;20037;-62
2022/11/27 06:31:25;;;;;;;0.25;0.00;;;;;;;10.97;100.00;100843.47;5031766;28;20061;-62
2022/11/27 06:33:52;;;;;;;2.30;0.10;;;;;;;10.98;100.00;100842.50;5031998;28;20034;-63
2022/11/27 06:36:18;;;;;;;0.00;0.00;;;;;;;10.98;100.00;100848.59;5030915;28;20029;-63
2022/11/27 06:38:45;;;;;;;0.25;0.03;;;;;;;10.97;100.00;100854.09;5031157;28;20069;-63
2022/11/27 06:41:13;;;;;;;0.68;0.20;;;;;;;10.97;100.00;100823.09;5030765;28;20478;-63
2022/11/27 06:43:38;;;;;;;0.45;0.15;;;;;;;11.03;100.00;100806.44;5032126;28;20469;-63
2022/11/27 06:46:06;;;;;;;0.10;0.10;;;;;;;11.04;100.00;100793.97;5024418;28;20113;-63
2022/11/27 06:48:32;;;;;;;0.30;0.30;;;;;;;11.04;100.00;100808.06;5028349;28;20034;-63
2022/11/27 06:51:02;;;;;;;0.10;0.00;;;;;;;11.08;100.00;100825.25;5023919;28;20031;-63
2022/11/27 06:53:29;;;;;;;2.53;0.10;;;;;;;11.12;100.00;100833.66;5028611;28;20475;-63
2022/11/27 06:55:55;;;;;;;0.55;0.43;;;;;;;11.12;100.00;100842.44;5026413;28;20025;-64
2022/11/27 06:58:21;;;;;;;0.68;0.17;;;;;;;11.13;100.00;100843.28;5024358;28;20025;-63
2022/11/27 07:00:46;;;;;;;0.10;0.00;;;;;;;11.12;100.00;100837.13;5030307;28;20058;-63
2022/11/27 07:03:11;;;;;;;0.63;0.10;;;;;;;11.07;100.00;100830.75;5027219;28;20460;-63
2022/11/27 07:05:37;;;;;;;3.03;0.85;;;;;;;11.11;100.00;100816.94;5018961;28;20379;-63
2022/11/27 07:08:02;;;;;;;0.17;0.10;;;;;;;11.07;100.00;100809.50;5027353;28;20466;-63
2022/11/27 07:10:28;;;;;;;2.97;0.73;;;;;;;11.09;100.00;100802.19;5027255;28;20411;-62
2022/11/27 07:12:53;;;;;;;3.30;0.52;;;;;;;11.08;100.00;100784.66;5030742;28;20028;-63
2022/11/27 07:15:18;;;;;;;0.73;0.30;;;;;;;11.10;100.00;100788.75;5030800;28;20033;-63
2022/11/27 07:17:43;;;;;;;0.32;0.32;;;;;;;11.09;100.00;100776.47;5025785;28;20025;-63
2022/11/27 07:20:09;;;;;;;0.47;0.47;;;;;;;11.08;100.00;100763.41;5029883;28;20034;-63
2022/11/27 07:22:35;;;;;;;5.43;0.57;;;;;;;11.10;100.00;100748.09;5008859;28;20029;-63
2022/11/27 07:25:00;;;;;;;0.10;0.10;;;;;;;11.14;100.00;100742.25;5026433;28;20127;-63
2022/11/27 07:27:25;;;;;;;0.40;0.40;;;;;;;11.15;100.00;100748.38;5030469;28;20056;-63
2022/11/27 07:29:51;;;;;;;0.22;0.22;;;;;;;11.15;100.00;100766.94;5028252;28;20057;-63
2022/11/27 07:32:17;;;;;;;2.38;0.50;;;;;;;11.18;100.00;100782.50;5029519;28;20056;-64
2022/11/27 07:34:42;;;;;;;0.32;0.32;;;;;;;11.19;100.00;100783.34;5029118;28;20021;-63
2022/11/27 07:37:07;;;;;;;0.60;0.30;;;;;;;11.20;100.00;100777.00;5029611;28;20021;-63
2022/11/27 07:39:33;;;;;;;0.52;0.52;;;;;;;11.21;100.00;100784.78;5024817;28;20459;-63
2022/11/27 07:41:58;;;;;;;5.57;0.20;;;;;;;11.18;100.00;100794.94;5025025;28;20418;-63
2022/11/27 07:44:23;;;;;;;0.65;0.20;;;;;;;11.13;100.00;100825.53;5031287;28;20057;-63
2022/11/27 07:46:49;;;;;;;2.42;0.50;;;;;;;11.16;100.00;100836.78;5029878;28;20390;-63
2022/11/27 07:49:14;;;;;;;3.47;0.28;;;;;;;11.19;100.00;100839.06;5028094;28;20387;-63
2022/11/27 07:51:39;;;;;;;1.50;0.20;;;;;;;11.20;100.00;100824.78;5024096;28;20044;-62
2022/11/27 07:54:05;;;;;;;0.52;0.22;;;;;;;11.16;100.00;100810.25;5026805;28;20471;-61
2022/11/27 07:56:30;;;;;;;1.75;0.50;;;;;;;11.16;100.00;100810.25;5026785;28;20096;-63
2022/11/27 07:58:56;;;;;;;0.85;0.20;;;;;;;11.15;100.00;100817.38;5020324;28;20036;-63
2022/11/27 08:01:23;;;;;;;1.45;0.40;;;;;;;11.14;100.00;100813.91;5029039;28;20036;-62
2022/11/27 08:03:48;;;;;;;1.65;0.28;;;;;;;11.15;100.00;100812.06;5028579;28;20025;-62
2022/11/27 08:06:20;;;;;;;4.13;0.28;;;;;;;11.16;100.00;100804.94;5022627;28;20028;-63
2022/11/27 08:08:45;;;;;;;;;;;;;;;11.13;100.00;100814.09;5027280;28;20585;-62
2022/11/27 08:11:35;;;;;;;1.55;0.20;;;;;;;11.19;100.00;100818.66;5028252;28;20031;-62
2022/11/27 08:14:03;;;;;;;6.03;3.67;;;;;;;11.20;100.00;100819.47;5028030;28;20152;-63
2022/11/27 08:16:30;;;;;;;5.93;1.80;;;;;;;11.11;100.00;100814.28;5027067;28;20053;-62
2022/11/27 08:18:55;;;;;;;3.40;1.80;;;;;;;11.06;100.00;100818.50;5026698;28;20461;-62
2022/11/27 08:21:21;;;;;;;4.43;0.50;;;;;;;11.07;100.00;100820.94;5025014;28;20125;-62
2022/11/27 08:23:47;;;;;;;2.40;0.70;;;;;;;11.07;100.00;100813.00;5028175;28;20441;-62
2022/11/27 08:26:13;;;;;;;5.28;0.40;;;;;;;11.09;100.00;100812.81;5022193;28;21081;-62
2022/11/27 08:28:39;;;;;;;3.85;0.20;;;;;;;11.11;100.00;100819.56;5024699;28;20037;-61
2022/11/27 08:31:07;;;;;;;1.75;1.02;;;;;;;11.24;100.00;100831.38;5026407;28;20033;-62
2022/11/27 08:33:33;;;;;;;4.15;0.77;;;;;;;11.25;100.00;100843.63;5022338;28;20041;-61
2022/11/27 08:35:58;;;;;;;3.30;0.50;;;;;;;11.33;100.00;100847.00;5026121;28;20095;-62
2022/11/27 08:38:24;;;;;;;0.95;0.68;;;;;;;11.38;100.00;100848.25;5023524;28;20116;-62
2022/11/27 08:41:00;;;;;;;1.63;1.50;;;;;;;11.33;100.00;100852.31;5029534;28;20690;-61
2022/11/27 08:43:27;;;;;;;6.38;0.70;;;;;;;11.38;100.00;100851.72;5029940;28;20116;-62
2022/11/27 08:45:52;;;;;;;1.50;0.38;;;;;;;11.37;100.00;100852.75;5022271;28;20076;-63
2022/11/27 08:48:19;;;;;;;2.38;0.47;;;;;;;11.38;100.00;100856.22;5022340;28;20044;-62
2022/11/27 08:50:44;;;;;;;1.65;0.73;;;;;;;11.36;100.00;100845.81;5028658;28;20514;-62
2022/11/27 08:53:10;;;;;;;4.18;1.38;;;;;;;11.38;100.00;100849.06;5029214;28;20060;-63
2022/11/27 08:55:35;;;;;;;3.55;0.85;;;;;;;11.39;100.00;100856.03;5024783;28;20546;-63
2022/11/27 08:58:02;;;;;;;1.52;0.82;;;;;;;11.35;100.00;100850.28;5019597;28;20048;-63
2022/11/27 09:00:28;;;;;;;3.65;0.70;;;;;;;11.34;100.00;100856.59;5023958;28;20525;-61
2022/11/27 09:02:54;;;;;;;5.55;1.45;;;;;;;11.39;100.00;100858.69;5024443;28;20104;-63
2022/11/27 09:05:19;;;;;;;2.08;0.60;;;;;;;11.37;100.00;100862.56;5024815;28;20564;-63
2022/11/27 09:07:44;;;;;;;5.88;0.40;;;;;;;11.37;100.00;100857.25;5027611;28;20490;-64
2022/11/27 09:10:10;;;;;;;7.25;1.17;;;;;;;11.34;100.00;100845.97;5022840;28;20087;-63
2022/11/27 09:12:35;;;;;;;2.38;0.52;;;;;;;11.33;100.00;100848.81;5026739;28;20030;-63
2022/11/27 09:15:01;;;;;;;4.90;0.60;;;;;;;11.38;100.00;100843.75;5027838;28;20029;-63
2022/11/27 09:17:26;;;;;;;1.77;0.38;;;;;;;11.31;100.00;100840.25;5029121;28;20069;-63
2022/11/27 09:19:52;;;;;;;1.00;0.30;;;;;;;11.35;100.00;100838.84;5029461;28;20480;-62
2022/11/27 09:22:17;;;;;;;2.78;0.55;;;;;;;11.35;100.00;100828.22;5022963;28;20127;-63
2022/11/27 09:24:43;;;;;;;2.83;0.77;;;;;;;11.39;100.00;100818.06;5017539;28;20405;-63
2022/11/27 09:27:08;;;;;;;2.42;0.38;;;;;;;11.44;100.00;100813.81;5022723;28;20041;-62
2022/11/27 09:29:34;;;;;;;1.25;0.38;;;;;;;11.50;100.00;100799.78;5021852;28;20473;-63
2022/11/27 09:32:00;;;;;;;1.30;0.05;;;;;;;11.43;100.00;100798.88;5033470;28;20026;-62
2022/11/27 09:34:25;;;;;;;1.10;0.30;;;;;;;11.45;100.00;100815.47;5028446;28;20032;-63
2022/11/27 09:36:51;;;;;;;2.50;0.00;;;;;;;11.48;100.00;100816.91;5027400;28;20040;-62
2022/11/27 09:39:18;;;;;;;5.53;0.70;;;;;;;11.50;100.00;100797.13;5036682;28;20133;-62
2022/11/27 09:41:53;;;;;;;8.52;1.92;;;;;;;11.52;100.00;100800.44;5018979;28;20026;-63
2022/11/27 09:44:51;;;;;;;5.53;0.28;;;;;;;11.53;100.00;100794.09;5023372;28;20036;-63
2022/11/27 09:47:27;;;;;;;1.08;0.20;;;;;;;11.53;100.00;100796.75;5023342;28;20104;-63
2022/11/27 09:50:02;;;;;;;2.78;0.50;;;;;;;11.60;100.00;100799.47;5018199;28;20034;-64
2022/11/27 09:52:37;;;;;;;0.80;0.00;;;;;;;11.65;100.00;100783.78;5020455;28;20116;-64
2022/11/27 09:55:33;;;;;;;2.97;0.40;;;;;;;11.68;100.00;100770.13;5017977;28;20030;-63
2022/11/27 09:58:05;;;;;;;0.68;0.45;;;;;;;11.75;100.00;100780.81;5018727;28;20026;-63
2022/11/27 10:00:31;;;;;;;1.90;0.25;;;;;;;11.78;100.00;100785.75;5026826;28;20777;-62
2022/11/27 10:02:56;;;;;;;1.73;0.22;;;;;;;11.83;100.00;100787.84;5024112;28;20132;-63
2022/11/27 10:05:34;;;;;;;3.40;0.43;;;;;;;11.88;100.00;100796.09;5027229;28;20029;-63
2022/11/27 10:08:11;;;;;;;10.95;3.30;;;;;;;11.87;100.00;100797.06;5030487;28;20434;-63
2022/11/27 10:11:00;;;;;;;3.63;1.33;;;;;;;11.85;100.00;100802.56;5025807;28;20050;-63
2022/11/27 10:13:31;;;;;;;6.32;1.95;;;;;;;11.84;100.00;100813.38;5017545;28;20457;-63
2022/11/27 10:16:17;;;;;;;3.83;1.30;;;;;;;11.82;100.00;100797.63;5014611;28;20120;-63
2022/11/27 10:18:52;;;;;;;4.63;0.30;;;;;;;11.87;100.00;100778.47;5012349;28;20095;-62
2022/11/27 10:21:20;;;;;;;8.40;1.27;;;;;;;11.90;100.00;100781.59;5022230;28;20036;-62
2022/11/27 10:24:23;;;;;;;5.78;0.40;;;;;;;11.91;100.00;100780.56;5019994;28;20119;-62
2022/11/27 10:26:51;;;;;;;6.82;1.33;;;;;;;11.87;100.00;100767.84;5009838;28;20045;-62
2022/11/27 10:29:35;;;;;;;4.80;0.55;;;;;;;11.89;100.00;100766.66;5022202;28;20025;-62
2022/11/27 10:32:14;;;;;;;3.67;0.50;;;;;;;11.85;100.00;100765.38;5022612;28;20033;-62
2022/11/27 10:35:12;;;;;;;1.05;0.55;;;;;;;11.89;100.00;100750.69;5022714;28;20030;-63
2022/11/27 10:37:44;;;;;;;5.50;0.50;;;;;;;11.91;100.00;100753.19;5020430;28;20458;-64
2022/11/27 10:40:13;;;;;;;1.02;0.40;;;;;;;11.91;100.00;100748.69;5026145;28;20037;-62
2022/11/27 10:42:48;;;;;;;4.80;0.75;;;;;;;11.96;100.00;100732.97;5025501;28;20026;-62
2022/11/27 10:45:23;;;;;;;4.80;1.20;;;;;;;11.96;100.00;100727.66;5021523;28;20060;-62
2022/11/27 10:47:48;;;;;;;3.95;0.70;;;;;;;11.92;100.00;100717.63;5024828;28;20041;-63
2022/11/27 10:50:18;;;;;;;6.97;1.13;;;;;;;11.96;100.00;100717.03;5024360;28;20055;-63
2022/11/27 10:53:06;;;;;;;11.98;1.13;;;;;;;11.97;100.00;100726.63;5026590;28;20385;-63
2022/11/27 10:55:58;;;;;;;12.18;1.27;;;;;;;11.99;100.00;100724.63;5023608;28;20038;-62
2022/11/27 10:58:38;;;;;;;8.93;1.20;;;;;;;12.03;100.00;100716.25;5030192;28;20112;-63
2022/11/27 11:01:10;;;;;;;7.43;2.03;;;;;;;12.04;100.00;100716.06;5028499;28;20053;-63
2022/11/27 11:03:36;;;;;;;3.50;0.93;;;;;;;12.03;100.00;100718.91;5027263;28;20044;-64
2022/11/27 11:06:07;;;;;;;8.57;0.90;;;;;;;12.04;100.00;100731.19;5024153;28;20291;-62
2022/11/27 11:08:35;;;;;;;10.18;1.48;;;;;;;11.99;100.00;100731.78;5027719;28;20053;-63
2022/11/27 11:11:04;;;;;;;5.70;0.75;;;;;;;11.99;100.00;100729.94;5032338;28;20548;-64
2022/11/27 11:13:50;;;;;;;12.73;2.92;;;;;;;11.94;100.00;100719.06;5030881;28;20037;-63
2022/11/27 11:16:20;;;;;;;8.13;1.83;;;;;;;11.94;100.00;100719.06;5032088;28;20513;-64
2022/11/27 11:18:52;;;;;;;7.70;1.42;;;;;;;11.88;100.00;100717.19;5033474;28;20025;-64
2022/11/27 11:21:31;;;;;;;12.77;2.13;;;;;;;11.88;100.00;100719.03;5028149;28;20060;-63
2022/11/27 11:24:01;;;;;;;10.63;2.35;;;;;;;11.89;100.00;100713.50;5031472;28;20367;-63
2022/11/27 11:26:30;;;;;;;10.32;1.00;;;;;;;11.95;100.00;100710.09;5031390;28;20535;-63
2022/11/27 11:28:59;;;;;;;13.57;1.15;;;;;;;11.93;100.00;100700.69;5030564;28;20419;-63